sensor_id;sensor_type;location;lat;lon;timestamp;temperature;humidity
3628;DHT22;1830;49.000;12.074;2022-09-09T00:00:26;14.90;99.90
3628;DHT22;1830;49.000;12.074;2022-09-09T00:03:02;14.90;99.90
3628;DHT22;1830;49.000;12.074;2022-09-09T00:05:36;14.90;99.90
3628;DHT22;1830;49.000;12.074;2022-09-09T00:08:15;14.90;99.90
3628;DHT22;1830;49.000;12.074;2022-09-09T00:10:48;14.90;99.90
3628;DHT22;1830;49.000;12.074;2022-09-09T00:13:22;14.90;99.90
3628;DHT22;1830;49.000;12.074;2022-09-09T00:15:57;14.90;99.90
3628;DHT22;1830;49.000;12.074;2022-09-09T00:18:28;15.00;99.90
3628;DHT22;1830;49.000;12.074;2022-09-09T00:21:05;15.00;99.90
3628;DHT22;1830;49.000;12.074;2022-09-09T00:23:34;15.00;99.90
3628;DHT22;1830;49.000;12.074;2022-09-09T00:26:08;15.00;99.90
3628;DHT22;1830;49.000;12.074;2022-09-09T00:28:39;15.00;99.90
3628;DHT22;1830;49.000;12.074;2022-09-09T00:31:13;15.00;99.90
3628;DHT22;1830;49.000;12.074;2022-09-09T00:33:41;15.00;99.90
3628;DHT22;1830;49.000;12.074;2022-09-09T00:36:13;15.00;99.90
3628;DHT22;1830;49.000;12.074;2022-09-09T00:38:43;15.00;99.90
3628;DHT22;1830;49.000;12.074;2022-09-09T00:41:14;15.10;99.90
3628;DHT22;1830;49.000;12.074;2022-09-09T00:43:49;15.10;99.90
3628;DHT22;1830;49.000;12.074;2022-09-09T00:46:37;15.00;99.90
3628;DHT22;1830;49.000;12.074;2022-09-09T00:49:15;15.10;99.90
3628;DHT22;1830;49.000;12.074;2022-09-09T00:51:50;15.10;99.90
3628;DHT22;1830;49.000;12.074;2022-09-09T00:54:32;15.10;99.90
3628;DHT22;1830;49.000;12.074;2022-09-09T00:57:13;15.00;99.90
3628;DHT22;1830;49.000;12.074;2022-09-09T00:59:47;15.00;99.90
3628;DHT22;1830;49.000;12.074;2022-09-09T01:02:26;14.90;99.90
3628;DHT22;1830;49.000;12.074;2022-09-09T01:04:55;14.90;99.90
3628;DHT22;1830;49.000;12.074;2022-09-09T01:07:24;15.00;99.90
3628;DHT22;1830;49.000;12.074;2022-09-09T01:09:55;14.90;99.90
3628;DHT22;1830;49.000;12.074;2022-09-09T01:12:30;14.90;99.90
3628;DHT22;1830;49.000;12.074;2022-09-09T01:15:07;14.90;99.90
3628;DHT22;1830;49.000;12.074;2022-09-09T01:17:48;14.90;99.90
3628;DHT22;1830;49.000;12.074;2022-09-09T01:20:20;15.00;99.90
3628;DHT22;1830;49.000;12.074;2022-09-09T01:22:57;15.00;99.90
3628;DHT22;1830;49.000;12.074;2022-09-09T01:28:16;15.00;99.90
3628;DHT22;1830;49.000;12.074;2022-09-09T01:30:44;15.00;99.90
3628;DHT22;1830;49.000;12.074;2022-09-09T01:33:13;14.90;99.90
3628;DHT22;1830;49.000;12.074;2022-09-09T01:35:46;15.00;99.90
3628;DHT22;1830;49.000;12.074;2022-09-09T01:38:17;15.00;99.90
3628;DHT22;1830;49.000;12.074;2022-09-09T01:40:44;14.90;99.90
3628;DHT22;1830;49.000;12.074;2022-09-09T01:43:12;14.80;99.90
3628;DHT22;1830;49.000;12.074;2022-09-09T01:45:41;14.80;99.90
3628;DHT22;1830;49.000;12.074;2022-09-09T01:48:09;14.80;99.90
3628;DHT22;1830;49.000;12.074;2022-09-09T01:50:35;14.70;99.90
3628;DHT22;1830;49.000;12.074;2022-09-09T01:53:02;14.80;99.90
3628;DHT22;1830;49.000;12.074;2022-09-09T01:55:53;14.80;99.90
3628;DHT22;1830;49.000;12.074;2022-09-09T01:58:30;14.80;99.90
3628;DHT22;1830;49.000;12.074;2022-09-09T02:01:09;14.80;99.90
3628;DHT22;1830;49.000;12.074;2022-09-09T02:03:44;14.70;99.90
3628;DHT22;1830;49.000;12.074;2022-09-09T02:06:22;14.70;99.90
3628;DHT22;1830;49.000;12.074;2022-09-09T02:08:54;14.70;99.90
3628;DHT22;1830;49.000;12.074;2022-09-09T02:11:23;14.80;99.90
3628;DHT22;1830;49.000;12.074;2022-09-09T02:13:54;14.80;99.90
3628;DHT22;1830;49.000;12.074;2022-09-09T02:16:26;14.80;99.90
3628;DHT22;1830;49.000;12.074;2022-09-09T02:18:57;14.60;99.90
3628;DHT22;1830;49.000;12.074;2022-09-09T02:21:25;14.50;99.90
3628;DHT22;1830;49.000;12.074;2022-09-09T02:23:56;14.60;99.90
3628;DHT22;1830;49.000;12.074;2022-09-09T02:26:24;14.60;99.90
3628;DHT22;1830;49.000;12.074;2022-09-09T02:28:56;14.50;99.90
3628;DHT22;1830;49.000;12.074;2022-09-09T02:31:25;14.50;99.90
3628;DHT22;1830;49.000;12.074;2022-09-09T02:33:55;14.50;99.90
3628;DHT22;1830;49.000;12.074;2022-09-09T02:36:24;14.50;99.90
3628;DHT22;1830;49.000;12.074;2022-09-09T02:38:52;14.50;99.90
3628;DHT22;1830;49.000;12.074;2022-09-09T02:41:22;14.50;99.90
3628;DHT22;1830;49.000;12.074;2022-09-09T02:43:51;14.50;99.90
3628;DHT22;1830;49.000;12.074;2022-09-09T02:46:31;14.50;99.90
3628;DHT22;1830;49.000;12.074;2022-09-09T02:49:04;14.40;99.90
3628;DHT22;1830;49.000;12.074;2022-09-09T02:51:39;14.50;99.90
3628;DHT22;1830;49.000;12.074;2022-09-09T02:54:10;14.50;99.90
3628;DHT22;1830;49.000;12.074;2022-09-09T02:56:44;14.40;99.90
3628;DHT22;1830;49.000;12.074;2022-09-09T02:59:12;14.40;99.90
3628;DHT22;1830;49.000;12.074;2022-09-09T03:01:40;14.40;99.90
3628;DHT22;1830;49.000;12.074;2022-09-09T03:04:07;14.40;99.90
3628;DHT22;1830;49.000;12.074;2022-09-09T03:06:34;14.30;99.90
3628;DHT22;1830;49.000;12.074;2022-09-09T03:09:02;14.30;99.90
3628;DHT22;1830;49.000;12.074;2022-09-09T03:11:29;14.20;99.90
3628;DHT22;1830;49.000;12.074;2022-09-09T03:13:55;14.10;99.90
3628;DHT22;1830;49.000;12.074;2022-09-09T03:16:22;14.10;99.90
3628;DHT22;1830;49.000;12.074;2022-09-09T03:18:51;14.20;99.90
3628;DHT22;1830;49.000;12.074;2022-09-09T03:21:18;14.20;99.90
3628;DHT22;1830;49.000;12.074;2022-09-09T03:23:45;14.20;99.90
3628;DHT22;1830;49.000;12.074;2022-09-09T03:26:12;14.10;99.90
3628;DHT22;1830;49.000;12.074;2022-09-09T03:28:40;14.20;99.90
3628;DHT22;1830;49.000;12.074;2022-09-09T03:31:08;14.20;99.90
3628;DHT22;1830;49.000;12.074;2022-09-09T03:33:35;14.30;99.90
3628;DHT22;1830;49.000;12.074;2022-09-09T03:36:04;14.20;99.90
3628;DHT22;1830;49.000;12.074;2022-09-09T03:38:31;14.20;99.90
3628;DHT22;1830;49.000;12.074;2022-09-09T03:40:59;14.20;99.90
3628;DHT22;1830;49.000;12.074;2022-09-09T03:43:28;14.20;99.90
3628;DHT22;1830;49.000;12.074;2022-09-09T03:45:55;14.10;99.90
3628;DHT22;1830;49.000;12.074;2022-09-09T03:48:23;14.00;99.90
3628;DHT22;1830;49.000;12.074;2022-09-09T03:50:51;14.10;99.90
3628;DHT22;1830;49.000;12.074;2022-09-09T03:53:22;14.10;99.90
3628;DHT22;1830;49.000;12.074;2022-09-09T03:55:51;14.10;99.90
3628;DHT22;1830;49.000;12.074;2022-09-09T03:58:21;14.00;99.90
3628;DHT22;1830;49.000;12.074;2022-09-09T04:00:54;14.10;99.90
3628;DHT22;1830;49.000;12.074;2022-09-09T04:03:21;14.20;99.90
3628;DHT22;1830;49.000;12.074;2022-09-09T04:05:50;14.10;99.90
3628;DHT22;1830;49.000;12.074;2022-09-09T04:08:17;14.00;99.90
3628;DHT22;1830;49.000;12.074;2022-09-09T04:10:46;14.00;99.90
3628;DHT22;1830;49.000;12.074;2022-09-09T04:13:13;14.00;99.90
3628;DHT22;1830;49.000;12.074;2022-09-09T04:15:43;14.00;99.90
3628;DHT22;1830;49.000;12.074;2022-09-09T04:18:11;14.00;99.90
3628;DHT22;1830;49.000;12.074;2022-09-09T04:20:37;14.00;99.90
3628;DHT22;1830;49.000;12.074;2022-09-09T04:23:04;14.00;99.90
3628;DHT22;1830;49.000;12.074;2022-09-09T04:25:31;14.00;99.90
3628;DHT22;1830;49.000;12.074;2022-09-09T04:28:00;14.00;99.90
3628;DHT22;1830;49.000;12.074;2022-09-09T04:30:28;14.00;99.90
3628;DHT22;1830;49.000;12.074;2022-09-09T04:32:56;14.00;99.90
3628;DHT22;1830;49.000;12.074;2022-09-09T04:35:22;13.90;99.90
3628;DHT22;1830;49.000;12.074;2022-09-09T04:37:49;13.90;99.90
3628;DHT22;1830;49.000;12.074;2022-09-09T04:40:16;13.90;99.90
3628;DHT22;1830;49.000;12.074;2022-09-09T04:42:43;14.00;99.90
3628;DHT22;1830;49.000;12.074;2022-09-09T04:45:11;14.00;99.90
3628;DHT22;1830;49.000;12.074;2022-09-09T04:47:39;14.00;99.90
3628;DHT22;1830;49.000;12.074;2022-09-09T04:50:07;14.00;99.90
3628;DHT22;1830;49.000;12.074;2022-09-09T04:52:34;14.00;99.90
3628;DHT22;1830;49.000;12.074;2022-09-09T04:55:01;14.10;99.90
3628;DHT22;1830;49.000;12.074;2022-09-09T04:57:28;14.10;99.90
3628;DHT22;1830;49.000;12.074;2022-09-09T04:59:57;14.00;99.90
3628;DHT22;1830;49.000;12.074;2022-09-09T05:02:26;14.00;99.90
3628;DHT22;1830;49.000;12.074;2022-09-09T05:04:53;14.00;99.90
3628;DHT22;1830;49.000;12.074;2022-09-09T05:07:20;14.00;99.90
3628;DHT22;1830;49.000;12.074;2022-09-09T05:09:47;14.00;99.90
3628;DHT22;1830;49.000;12.074;2022-09-09T05:12:14;14.00;99.90
3628;DHT22;1830;49.000;12.074;2022-09-09T05:14:42;14.00;99.90
3628;DHT22;1830;49.000;12.074;2022-09-09T05:17:09;14.10;99.90
3628;DHT22;1830;49.000;12.074;2022-09-09T05:19:38;14.10;99.90
3628;DHT22;1830;49.000;12.074;2022-09-09T05:22:05;14.10;99.90
3628;DHT22;1830;49.000;12.074;2022-09-09T05:24:32;14.00;99.90
3628;DHT22;1830;49.000;12.074;2022-09-09T05:26:59;14.00;99.90
3628;DHT22;1830;49.000;12.074;2022-09-09T05:29:27;14.00;99.90
3628;DHT22;1830;49.000;12.074;2022-09-09T05:31:54;14.00;99.90
3628;DHT22;1830;49.000;12.074;2022-09-09T05:34:21;14.00;99.90
3628;DHT22;1830;49.000;12.074;2022-09-09T05:36:49;14.10;99.90
3628;DHT22;1830;49.000;12.074;2022-09-09T05:39:16;14.00;99.90
3628;DHT22;1830;49.000;12.074;2022-09-09T05:41:43;14.10;99.90
3628;DHT22;1830;49.000;12.074;2022-09-09T05:44:10;14.20;99.90
3628;DHT22;1830;49.000;12.074;2022-09-09T05:46:37;14.20;99.90
3628;DHT22;1830;49.000;12.074;2022-09-09T05:49:04;14.20;99.90
3628;DHT22;1830;49.000;12.074;2022-09-09T05:51:32;14.30;99.90
3628;DHT22;1830;49.000;12.074;2022-09-09T05:54:00;14.30;99.90
3628;DHT22;1830;49.000;12.074;2022-09-09T05:56:28;14.40;99.90
3628;DHT22;1830;49.000;12.074;2022-09-09T05:58:56;14.40;99.90
3628;DHT22;1830;49.000;12.074;2022-09-09T06:01:24;14.30;99.90
3628;DHT22;1830;49.000;12.074;2022-09-09T06:03:51;14.30;99.90
3628;DHT22;1830;49.000;12.074;2022-09-09T06:06:20;14.30;99.90
3628;DHT22;1830;49.000;12.074;2022-09-09T06:08:49;14.20;99.90
3628;DHT22;1830;49.000;12.074;2022-09-09T06:11:20;14.10;99.90
3628;DHT22;1830;49.000;12.074;2022-09-09T06:13:47;14.10;99.90
3628;DHT22;1830;49.000;12.074;2022-09-09T06:16:17;14.00;99.90
3628;DHT22;1830;49.000;12.074;2022-09-09T06:18:44;14.10;99.90
3628;DHT22;1830;49.000;12.074;2022-09-09T06:21:15;14.10;99.90
3628;DHT22;1830;49.000;12.074;2022-09-09T06:23:42;14.20;99.90
3628;DHT22;1830;49.000;12.074;2022-09-09T06:26:12;14.10;99.90
3628;DHT22;1830;49.000;12.074;2022-09-09T06:28:40;14.20;99.90
3628;DHT22;1830;49.000;12.074;2022-09-09T06:31:09;14.20;99.90
3628;DHT22;1830;49.000;12.074;2022-09-09T06:33:38;14.20;99.90
3628;DHT22;1830;49.000;12.074;2022-09-09T06:36:07;14.20;99.90
3628;DHT22;1830;49.000;12.074;2022-09-09T06:38:36;14.30;99.90
3628;DHT22;1830;49.000;12.074;2022-09-09T06:41:04;14.30;99.90
3628;DHT22;1830;49.000;12.074;2022-09-09T06:43:31;14.30;99.90
3628;DHT22;1830;49.000;12.074;2022-09-09T06:46:01;14.40;99.90
3628;DHT22;1830;49.000;12.074;2022-09-09T06:48:28;14.40;99.90
3628;DHT22;1830;49.000;12.074;2022-09-09T06:51:02;14.50;99.90
3628;DHT22;1830;49.000;12.074;2022-09-09T06:53:29;14.40;99.90
3628;DHT22;1830;49.000;12.074;2022-09-09T06:55:59;14.50;99.90
3628;DHT22;1830;49.000;12.074;2022-09-09T06:58:26;14.60;99.90
3628;DHT22;1830;49.000;12.074;2022-09-09T07:01:02;14.70;99.90
3628;DHT22;1830;49.000;12.074;2022-09-09T07:03:28;14.70;99.90
3628;DHT22;1830;49.000;12.074;2022-09-09T07:05:55;14.60;99.90
3628;DHT22;1830;49.000;12.074;2022-09-09T07:08:22;14.70;99.90
3628;DHT22;1830;49.000;12.074;2022-09-09T07:10:50;14.70;99.90
3628;DHT22;1830;49.000;12.074;2022-09-09T07:13:19;14.90;99.90
3628;DHT22;1830;49.000;12.074;2022-09-09T07:15:46;15.00;99.90
3628;DHT22;1830;49.000;12.074;2022-09-09T07:18:14;15.00;99.90
3628;DHT22;1830;49.000;12.074;2022-09-09T07:20:41;15.00;99.90
3628;DHT22;1830;49.000;12.074;2022-09-09T07:23:08;15.10;99.90
3628;DHT22;1830;49.000;12.074;2022-09-09T07:25:35;15.10;99.90
3628;DHT22;1830;49.000;12.074;2022-09-09T07:28:02;15.20;99.90
3628;DHT22;1830;49.000;12.074;2022-09-09T07:30:29;15.20;99.90
3628;DHT22;1830;49.000;12.074;2022-09-09T07:32:55;15.30;99.90
3628;DHT22;1830;49.000;12.074;2022-09-09T07:35:26;15.30;99.90
3628;DHT22;1830;49.000;12.074;2022-09-09T07:37:53;15.40;99.90
3628;DHT22;1830;49.000;12.074;2022-09-09T07:40:20;15.30;99.90
3628;DHT22;1830;49.000;12.074;2022-09-09T07:42:47;15.40;99.90
3628;DHT22;1830;49.000;12.074;2022-09-09T07:45:14;15.40;99.90
3628;DHT22;1830;49.000;12.074;2022-09-09T07:47:41;15.60;99.90
3628;DHT22;1830;49.000;12.074;2022-09-09T07:50:08;15.60;99.90
3628;DHT22;1830;49.000;12.074;2022-09-09T07:52:37;15.60;99.90
3628;DHT22;1830;49.000;12.074;2022-09-09T07:55:04;15.60;99.90
3628;DHT22;1830;49.000;12.074;2022-09-09T07:57:31;15.50;99.90
3628;DHT22;1830;49.000;12.074;2022-09-09T07:59:58;15.40;99.90
3628;DHT22;1830;49.000;12.074;2022-09-09T08:02:25;15.40;99.90
3628;DHT22;1830;49.000;12.074;2022-09-09T08:04:54;15.40;99.90
3628;DHT22;1830;49.000;12.074;2022-09-09T08:07:22;15.40;99.90
3628;DHT22;1830;49.000;12.074;2022-09-09T08:09:51;15.40;99.90
3628;DHT22;1830;49.000;12.074;2022-09-09T08:12:19;15.40;99.90
3628;DHT22;1830;49.000;12.074;2022-09-09T08:14:46;15.30;99.90
3628;DHT22;1830;49.000;12.074;2022-09-09T08:17:14;15.20;99.90
3628;DHT22;1830;49.000;12.074;2022-09-09T08:19:40;15.20;99.90
3628;DHT22;1830;49.000;12.074;2022-09-09T08:22:07;15.20;99.90
3628;DHT22;1830;49.000;12.074;2022-09-09T08:24:34;15.20;99.90
3628;DHT22;1830;49.000;12.074;2022-09-09T08:27:03;15.20;99.90
3628;DHT22;1830;49.000;12.074;2022-09-09T08:29:30;15.20;99.90
3628;DHT22;1830;49.000;12.074;2022-09-09T08:31:57;15.20;99.90
3628;DHT22;1830;49.000;12.074;2022-09-09T08:34:26;15.20;99.90
3628;DHT22;1830;49.000;12.074;2022-09-09T08:36:53;15.20;99.90
3628;DHT22;1830;49.000;12.074;2022-09-09T08:39:21;15.20;99.90
3628;DHT22;1830;49.000;12.074;2022-09-09T08:42:05;15.20;99.90
3628;DHT22;1830;49.000;12.074;2022-09-09T08:47:39;15.30;99.90
3628;DHT22;1830;49.000;12.074;2022-09-09T08:50:19;15.30;99.90
3628;DHT22;1830;49.000;12.074;2022-09-09T08:52:54;15.40;99.90
3628;DHT22;1830;49.000;12.074;2022-09-09T08:55:27;15.40;99.90
3628;DHT22;1830;49.000;12.074;2022-09-09T08:57:58;15.40;99.90
3628;DHT22;1830;49.000;12.074;2022-09-09T09:00:35;15.50;99.90
3628;DHT22;1830;49.000;12.074;2022-09-09T09:03:12;15.60;99.90
3628;DHT22;1830;49.000;12.074;2022-09-09T09:05:46;15.70;99.90
3628;DHT22;1830;49.000;12.074;2022-09-09T09:08:20;15.80;99.90
3628;DHT22;1830;49.000;12.074;2022-09-09T09:10:54;15.90;99.90
3628;DHT22;1830;49.000;12.074;2022-09-09T09:13:30;16.00;99.90
3628;DHT22;1830;49.000;12.074;2022-09-09T09:16:05;16.10;99.90
3628;DHT22;1830;49.000;12.074;2022-09-09T09:18:33;16.20;99.90
3628;DHT22;1830;49.000;12.074;2022-09-09T09:21:04;16.20;99.90
3628;DHT22;1830;49.000;12.074;2022-09-09T09:23:38;16.30;99.90
3628;DHT22;1830;49.000;12.074;2022-09-09T09:26:09;16.30;99.90
3628;DHT22;1830;49.000;12.074;2022-09-09T09:28:39;16.30;99.90
3628;DHT22;1830;49.000;12.074;2022-09-09T09:31:08;16.30;99.90
3628;DHT22;1830;49.000;12.074;2022-09-09T09:33:41;16.30;99.90
3628;DHT22;1830;49.000;12.074;2022-09-09T09:36:11;16.40;99.90
3628;DHT22;1830;49.000;12.074;2022-09-09T09:38:52;16.50;99.90
3628;DHT22;1830;49.000;12.074;2022-09-09T09:41:29;16.60;99.90
3628;DHT22;1830;49.000;12.074;2022-09-09T09:43:58;16.70;99.90
3628;DHT22;1830;49.000;12.074;2022-09-09T09:46:26;16.70;99.90
3628;DHT22;1830;49.000;12.074;2022-09-09T09:48:57;16.80;99.90
3628;DHT22;1830;49.000;12.074;2022-09-09T09:51:24;16.80;99.90
3628;DHT22;1830;49.000;12.074;2022-09-09T09:53:51;16.80;99.90
3628;DHT22;1830;49.000;12.074;2022-09-09T09:56:26;16.90;99.90
3628;DHT22;1830;49.000;12.074;2022-09-09T09:58:55;16.90;99.90
3628;DHT22;1830;49.000;12.074;2022-09-09T10:01:25;17.10;99.90
3628;DHT22;1830;49.000;12.074;2022-09-09T10:03:53;17.20;99.90
3628;DHT22;1830;49.000;12.074;2022-09-09T10:06:30;17.30;99.90
3628;DHT22;1830;49.000;12.074;2022-09-09T10:08:57;17.40;99.90
3628;DHT22;1830;49.000;12.074;2022-09-09T10:11:41;17.40;99.90
3628;DHT22;1830;49.000;12.074;2022-09-09T10:14:15;17.50;99.90
3628;DHT22;1830;49.000;12.074;2022-09-09T10:16:57;17.60;99.90
3628;DHT22;1830;49.000;12.074;2022-09-09T10:19:30;17.80;99.90
3628;DHT22;1830;49.000;12.074;2022-09-09T10:22:08;17.80;99.90
3628;DHT22;1830;49.000;12.074;2022-09-09T10:25:11;17.80;99.90
3628;DHT22;1830;49.000;12.074;2022-09-09T10:27:51;17.80;99.90
3628;DHT22;1830;49.000;12.074;2022-09-09T10:30:24;17.90;99.90
3628;DHT22;1830;49.000;12.074;2022-09-09T10:33:03;18.00;99.90
3628;DHT22;1830;49.000;12.074;2022-09-09T10:35:34;18.00;99.90
3628;DHT22;1830;49.000;12.074;2022-09-09T10:38:14;18.10;99.90
3628;DHT22;1830;49.000;12.074;2022-09-09T10:40:48;18.10;99.90
3628;DHT22;1830;49.000;12.074;2022-09-09T10:43:29;18.10;99.90
3628;DHT22;1830;49.000;12.074;2022-09-09T10:46:05;18.20;99.90
3628;DHT22;1830;49.000;12.074;2022-09-09T10:48:48;18.20;99.90
3628;DHT22;1830;49.000;12.074;2022-09-09T10:51:22;18.30;99.90
3628;DHT22;1830;49.000;12.074;2022-09-09T10:54:01;18.40;99.90
3628;DHT22;1830;49.000;12.074;2022-09-09T10:56:31;18.50;99.90
3628;DHT22;1830;49.000;12.074;2022-09-09T10:59:02;18.40;99.90
3628;DHT22;1830;49.000;12.074;2022-09-09T11:01:32;18.50;99.90
3628;DHT22;1830;49.000;12.074;2022-09-09T11:04:08;18.50;99.90
3628;DHT22;1830;49.000;12.074;2022-09-09T11:06:40;18.60;99.90
3628;DHT22;1830;49.000;12.074;2022-09-09T11:09:15;18.60;99.90
3628;DHT22;1830;49.000;12.074;2022-09-09T11:11:47;18.60;99.90
3628;DHT22;1830;49.000;12.074;2022-09-09T11:14:21;18.60;99.90
3628;DHT22;1830;49.000;12.074;2022-09-09T11:16:52;18.70;99.90
3628;DHT22;1830;49.000;12.074;2022-09-09T11:19:26;18.90;99.90
3628;DHT22;1830;49.000;12.074;2022-09-09T11:21:55;18.90;99.90
3628;DHT22;1830;49.000;12.074;2022-09-09T11:24:28;18.70;99.90
3628;DHT22;1830;49.000;12.074;2022-09-09T11:27:00;18.80;99.90
3628;DHT22;1830;49.000;12.074;2022-09-09T11:33:00;19.10;99.90
3628;DHT22;1830;49.000;12.074;2022-09-09T11:35:41;19.10;99.90
3628;DHT22;1830;49.000;12.074;2022-09-09T11:38:18;19.20;99.90
3628;DHT22;1830;49.000;12.074;2022-09-09T11:40:46;19.30;99.90
3628;DHT22;1830;49.000;12.074;2022-09-09T11:43:17;19.20;99.90
3628;DHT22;1830;49.000;12.074;2022-09-09T11:45:51;19.30;99.90
3628;DHT22;1830;49.000;12.074;2022-09-09T11:48:31;19.30;99.90
3628;DHT22;1830;49.000;12.074;2022-09-09T11:51:02;19.40;99.90
3628;DHT22;1830;49.000;12.074;2022-09-09T11:53:31;19.60;99.90
3628;DHT22;1830;49.000;12.074;2022-09-09T11:56:23;19.80;99.90
3628;DHT22;1830;49.000;12.074;2022-09-09T11:58:57;20.00;99.90
3628;DHT22;1830;49.000;12.074;2022-09-09T12:01:34;20.20;99.90
3628;DHT22;1830;49.000;12.074;2022-09-09T12:04:26;20.40;99.90
3628;DHT22;1830;49.000;12.074;2022-09-09T12:06:57;20.20;99.90
3628;DHT22;1830;49.000;12.074;2022-09-09T12:09:32;20.10;99.90
3628;DHT22;1830;49.000;12.074;2022-09-09T12:12:24;20.10;99.90
3628;DHT22;1830;49.000;12.074;2022-09-09T12:15:16;20.20;99.90
3628;DHT22;1830;49.000;12.074;2022-09-09T12:17:46;20.10;99.90
3628;DHT22;1830;49.000;12.074;2022-09-09T12:20:16;20.40;99.90
3628;DHT22;1830;49.000;12.074;2022-09-09T12:22:55;20.40;99.90
3628;DHT22;1830;49.000;12.074;2022-09-09T12:25:33;20.40;99.90
3628;DHT22;1830;49.000;12.074;2022-09-09T12:28:05;20.30;99.90
3628;DHT22;1830;49.000;12.074;2022-09-09T12:30:48;20.20;99.90
3628;DHT22;1830;49.000;12.074;2022-09-09T12:33:18;20.10;99.90
3628;DHT22;1830;49.000;12.074;2022-09-09T12:35:49;20.10;99.90
3628;DHT22;1830;49.000;12.074;2022-09-09T12:38:25;19.90;99.90
3628;DHT22;1830;49.000;12.074;2022-09-09T12:40:56;19.80;99.90
3628;DHT22;1830;49.000;12.074;2022-09-09T12:43:25;19.60;99.90
3628;DHT22;1830;49.000;12.074;2022-09-09T12:45:55;19.40;99.90
3628;DHT22;1830;49.000;12.074;2022-09-09T12:48:31;19.30;99.90
3628;DHT22;1830;49.000;12.074;2022-09-09T12:50:59;19.10;99.90
3628;DHT22;1830;49.000;12.074;2022-09-09T12:53:31;19.10;99.90
3628;DHT22;1830;49.000;12.074;2022-09-09T12:56:01;19.20;99.90
3628;DHT22;1830;49.000;12.074;2022-09-09T12:58:29;19.20;99.90
3628;DHT22;1830;49.000;12.074;2022-09-09T13:00:59;19.10;99.90
3628;DHT22;1830;49.000;12.074;2022-09-09T13:03:27;19.10;99.90
3628;DHT22;1830;49.000;12.074;2022-09-09T13:05:57;19.10;99.90
3628;DHT22;1830;49.000;12.074;2022-09-09T13:08:27;19.30;99.90
3628;DHT22;1830;49.000;12.074;2022-09-09T13:10:55;19.40;99.90
3628;DHT22;1830;49.000;12.074;2022-09-09T13:13:28;19.40;99.90
3628;DHT22;1830;49.000;12.074;2022-09-09T13:15:57;19.50;99.90
3628;DHT22;1830;49.000;12.074;2022-09-09T13:18:28;19.60;99.90
3628;DHT22;1830;49.000;12.074;2022-09-09T13:20:56;19.70;99.90
3628;DHT22;1830;49.000;12.074;2022-09-09T13:23:28;19.80;99.90
3628;DHT22;1830;49.000;12.074;2022-09-09T13:25:58;20.10;99.90
3628;DHT22;1830;49.000;12.074;2022-09-09T13:28:26;20.30;99.90
3628;DHT22;1830;49.000;12.074;2022-09-09T13:30:58;20.30;99.90
3628;DHT22;1830;49.000;12.074;2022-09-09T13:33:31;20.50;99.90
3628;DHT22;1830;49.000;12.074;2022-09-09T13:36:00;20.40;99.90
3628;DHT22;1830;49.000;12.074;2022-09-09T13:38:32;20.60;99.90
3628;DHT22;1830;49.000;12.074;2022-09-09T13:41:01;20.90;99.90
3628;DHT22;1830;49.000;12.074;2022-09-09T13:43:31;20.90;99.90
3628;DHT22;1830;49.000;12.074;2022-09-09T13:46:02;20.90;99.90
3628;DHT22;1830;49.000;12.074;2022-09-09T13:48:29;20.90;99.90
3628;DHT22;1830;49.000;12.074;2022-09-09T13:50:59;20.80;99.90
3628;DHT22;1830;49.000;12.074;2022-09-09T13:53:27;20.80;99.90
3628;DHT22;1830;49.000;12.074;2022-09-09T13:55:55;20.70;99.90
3628;DHT22;1830;49.000;12.074;2022-09-09T13:58:23;20.70;99.90
3628;DHT22;1830;49.000;12.074;2022-09-09T14:00:51;20.40;99.90
3628;DHT22;1830;49.000;12.074;2022-09-09T14:03:18;20.40;99.90
3628;DHT22;1830;49.000;12.074;2022-09-09T14:05:45;20.80;99.90
3628;DHT22;1830;49.000;12.074;2022-09-09T14:08:20;21.00;99.90
3628;DHT22;1830;49.000;12.074;2022-09-09T14:10:48;21.20;99.90
3628;DHT22;1830;49.000;12.074;2022-09-09T14:13:16;21.20;99.90
3628;DHT22;1830;49.000;12.074;2022-09-09T14:15:42;21.10;99.90
3628;DHT22;1830;49.000;12.074;2022-09-09T14:18:11;21.00;99.90
3628;DHT22;1830;49.000;12.074;2022-09-09T14:20:39;21.10;99.90
3628;DHT22;1830;49.000;12.074;2022-09-09T14:23:05;21.10;99.90
3628;DHT22;1830;49.000;12.074;2022-09-09T14:25:33;21.10;99.90
3628;DHT22;1830;49.000;12.074;2022-09-09T14:28:00;21.00;99.90
3628;DHT22;1830;49.000;12.074;2022-09-09T14:30:28;21.00;99.90
3628;DHT22;1830;49.000;12.074;2022-09-09T14:32:55;20.90;99.90
3628;DHT22;1830;49.000;12.074;2022-09-09T14:35:22;20.80;99.90
3628;DHT22;1830;49.000;12.074;2022-09-09T14:37:49;20.70;99.90
3628;DHT22;1830;49.000;12.074;2022-09-09T14:40:16;20.70;99.90
3628;DHT22;1830;49.000;12.074;2022-09-09T14:42:42;20.60;99.90
3628;DHT22;1830;49.000;12.074;2022-09-09T14:45:11;20.60;99.90
3628;DHT22;1830;49.000;12.074;2022-09-09T14:47:39;20.50;99.90
3628;DHT22;1830;49.000;12.074;2022-09-09T14:50:06;20.40;99.90
3628;DHT22;1830;49.000;12.074;2022-09-09T14:52:33;20.40;99.90
3628;DHT22;1830;49.000;12.074;2022-09-09T14:55:00;20.40;99.90
3628;DHT22;1830;49.000;12.074;2022-09-09T14:57:27;20.40;99.90
3628;DHT22;1830;49.000;12.074;2022-09-09T14:59:54;20.40;99.90
3628;DHT22;1830;49.000;12.074;2022-09-09T15:02:20;20.30;99.90
3628;DHT22;1830;49.000;12.074;2022-09-09T15:04:49;20.30;99.90
3628;DHT22;1830;49.000;12.074;2022-09-09T15:07:16;20.30;99.90
3628;DHT22;1830;49.000;12.074;2022-09-09T15:09:44;20.40;99.90
3628;DHT22;1830;49.000;12.074;2022-09-09T15:12:13;20.40;99.90
3628;DHT22;1830;49.000;12.074;2022-09-09T15:14:40;20.30;99.90
3628;DHT22;1830;49.000;12.074;2022-09-09T15:17:08;20.20;99.90
3628;DHT22;1830;49.000;12.074;2022-09-09T15:19:34;20.20;99.90
3628;DHT22;1830;49.000;12.074;2022-09-09T15:22:03;20.10;99.90
3628;DHT22;1830;49.000;12.074;2022-09-09T15:24:31;20.00;99.90
3628;DHT22;1830;49.000;12.074;2022-09-09T15:26:59;19.90;99.90
3628;DHT22;1830;49.000;12.074;2022-09-09T15:29:26;19.80;99.90
3628;DHT22;1830;49.000;12.074;2022-09-09T15:31:53;19.80;99.90
3628;DHT22;1830;49.000;12.074;2022-09-09T15:34:20;19.80;99.90
3628;DHT22;1830;49.000;12.074;2022-09-09T15:36:47;19.70;99.90
3628;DHT22;1830;49.000;12.074;2022-09-09T15:39:16;19.70;99.90
3628;DHT22;1830;49.000;12.074;2022-09-09T15:41:44;19.70;99.90
3628;DHT22;1830;49.000;12.074;2022-09-09T15:44:11;19.60;99.90
3628;DHT22;1830;49.000;12.074;2022-09-09T15:46:39;19.60;99.90
3628;DHT22;1830;49.000;12.074;2022-09-09T15:49:09;19.70;99.90
3628;DHT22;1830;49.000;12.074;2022-09-09T15:51:38;19.70;99.90
3628;DHT22;1830;49.000;12.074;2022-09-09T15:54:05;19.80;99.90
3628;DHT22;1830;49.000;12.074;2022-09-09T15:56:33;19.90;99.90
3628;DHT22;1830;49.000;12.074;2022-09-09T15:59:01;19.80;99.90
3628;DHT22;1830;49.000;12.074;2022-09-09T16:01:29;19.80;99.90
3628;DHT22;1830;49.000;12.074;2022-09-09T16:03:57;19.80;99.90
3628;DHT22;1830;49.000;12.074;2022-09-09T16:06:25;19.80;99.90
3628;DHT22;1830;49.000;12.074;2022-09-09T16:08:55;19.70;99.90
3628;DHT22;1830;49.000;12.074;2022-09-09T16:11:23;19.70;99.90
3628;DHT22;1830;49.000;12.074;2022-09-09T16:13:53;19.60;99.90